Weather at PSF Heliport [CLOSED]

Public forecast

Using degrees Fahrenheit for public forecast. Weather courtesy of forecast.io.

Closest aviation weather report (METAR) to PSF Heliport

Closest report is Rockwall Municipal Airport, 9.1 nm (16.8 km) WNW.

(retrieved 0 seconds ago)

Closest aviation forecast (TAF) to PSF Heliport

Closest forecast is Dallas Love Field, 29.3 nm (54.2 km) W.

2024/05/17 21:00 Ammendment (retrieved 3 hours ago)

TAF AMD KDAL 172057Z 1721/1818 28007KT P6SM SCT050 FM180000 20004KT P6SM SCT250